Terminal Aerodrome Forecast
Issued by NWS

Home | Current Version | Previous Version | Graphics & Text | Print | Product List | Glossary On
Versions: 1 2 3 4 5 6 7 8 9 10 11 12 13 14 15
034
FTUS43 KIWX 280936 AAA
TAFSBN
TAF AMD
KSBN 280936Z 2810/2906 22004KT P6SM SCT040 BKN120
     FM281100 23003KT 6SM BR VCSH BKN040 BKN120
     FM281300 VRB03KT P6SM SCT040 BKN120
     FM281900 32006KT P6SM SCT040 BKN150
     FM290000 36003KT P6SM SCT200=

USA.gov is the U.S. government's official web portal to all federal, state and local government web resources and services.